Time;durP1;ratioP1;P1;durP2;ratioP2;P2;SDS_P1;SDS_P2;PMS_P1;PMS_P2;Temp;Humidity;BMP_temperature;BMP_pressure;BME280_temperature;BME280_humidity;BME280_pressure;Samples;Min_cycle;Max_cycle;Signal;HPM_P1;HPM_P2
2023/08/22 00:01:28;;;;;;;4.25;2.25;;;;;;;26.15;59.68;99908.50;4444389;32;34144;-80
2023/08/22 00:03:59;;;;;;;4.62;2.33;;;;;;;26.11;59.24;99907.88;4437029;32;34575;-80
2023/08/22 00:06:28;;;;;;;3.85;2.10;;;;;;;26.07;59.41;99909.06;4445407;32;33965;-80
2023/08/22 00:08:57;;;;;;;3.70;2.33;;;;;;;25.98;59.74;99911.56;4445593;32;34140;-81
2023/08/22 00:11:27;;;;;;;4.37;2.70;;;;;;;25.89;59.80;99905.09;4445324;32;33359;-81
2023/08/22 00:13:55;;;;;;;4.12;2.17;;;;;;;25.84;59.87;99909.87;4440150;32;33472;-80
2023/08/22 00:16:24;;;;;;;4.22;2.60;;;;;;;25.58;60.51;99909.13;4444687;32;34003;-81
2023/08/22 00:18:53;;;;;;;4.22;2.45;;;;;;;25.79;59.94;99904.91;4446355;32;34359;-80
2023/08/22 00:21:23;;;;;;;5.65;2.53;;;;;;;25.79;60.08;99904.06;4452444;32;33322;-81
2023/08/22 00:23:52;;;;;;;4.05;2.42;;;;;;;25.83;59.91;99906.38;4431465;32;33420;-80
2023/08/22 00:26:22;;;;;;;6.53;2.35;;;;;;;25.68;60.22;99910.97;4431608;32;34692;-81
2023/08/22 00:28:51;;;;;;;5.37;2.65;;;;;;;25.67;60.65;99903.16;4444620;32;34456;-80
2023/08/22 00:31:20;;;;;;;5.00;3.17;;;;;;;25.82;60.27;99898.50;4446624;32;33777;-80
2023/08/22 00:33:49;;;;;;;3.55;2.00;;;;;;;25.71;60.68;99907.28;4452593;32;34222;-80
2023/08/22 00:36:18;;;;;;;4.30;2.30;;;;;;;25.75;60.43;99906.91;4446865;32;33662;-80
2023/08/22 00:38:48;;;;;;;3.33;2.00;;;;;;;25.61;60.70;99903.56;4446591;32;33546;-81
2023/08/22 00:41:17;;;;;;;3.92;2.05;;;;;;;25.63;61.05;99906.97;4448967;32;33526;-80
2023/08/22 00:43:46;;;;;;;4.60;2.17;;;;;;;25.48;61.50;99901.81;4452339;32;33732;-80
2023/08/22 00:46:15;;;;;;;3.95;2.05;;;;;;;25.29;62.26;99901.44;4446457;32;34783;-81
2023/08/22 00:48:44;;;;;;;3.35;1.75;;;;;;;25.34;62.18;99899.28;4446464;32;33886;-81
2023/08/22 00:51:15;;;;;;;5.07;2.90;;;;;;;25.39;62.37;99906.94;4446790;32;33828;-80
2023/08/22 00:53:45;;;;;;;4.05;2.17;;;;;;;25.35;62.55;99903.66;4447421;32;33056;-81
2023/08/22 00:56:16;;;;;;;4.00;2.30;;;;;;;25.58;61.67;99898.50;4452063;32;33642;-80
2023/08/22 00:58:45;;;;;;;4.47;2.70;;;;;;;25.35;62.35;99903.66;4446419;32;34400;-80
2023/08/22 01:01:14;;;;;;;5.35;2.90;;;;;;;25.40;61.98;99901.53;4446420;32;33021;-80
2023/08/22 01:03:44;;;;;;;4.97;2.90;;;;;;;25.29;62.37;99904.09;4446390;32;33020;-81
2023/08/22 01:06:17;;;;;;;4.53;2.50;;;;;;;25.35;61.71;99906.31;4452179;32;34048;-80
2023/08/22 01:08:49;;;;;;;4.30;2.37;;;;;;;25.27;61.94;99904.22;4446522;32;33721;-80
2023/08/22 01:11:24;;;;;;;4.40;2.30;;;;;;;25.51;61.42;99904.22;4440943;32;33686;-80
2023/08/22 01:13:56;;;;;;;3.22;1.80;;;;;;;25.39;61.92;99905.12;4432775;32;33396;-81
2023/08/22 01:16:25;;;;;;;5.93;2.95;;;;;;;25.25;62.40;99906.12;4446562;32;33507;-81
2023/08/22 01:18:54;;;;;;;4.93;2.33;;;;;;;25.17;62.73;99908.44;4452294;32;34254;-81
2023/08/22 01:21:24;;;;;;;4.72;2.85;;;;;;;25.13;63.09;99905.16;4446262;32;34490;-81
2023/08/22 01:23:55;;;;;;;5.43;2.78;;;;;;;25.20;62.62;99902.94;4446034;32;34479;-80
2023/08/22 01:26:24;;;;;;;4.10;2.53;;;;;;;25.22;62.37;99898.34;4446552;32;33082;-80
2023/08/22 01:28:55;;;;;;;4.43;2.05;;;;;;;25.18;62.32;99896.03;4451634;32;33702;-81
2023/08/22 01:31:32;;;;;;;6.82;2.58;;;;;;;25.10;62.58;99894.75;4446512;32;33079;-81
2023/08/22 01:34:06;;;;;;;4.50;2.45;;;;;;;25.00;63.11;99891.03;4446647;32;33388;-80
2023/08/22 01:36:37;;;;;;;5.03;2.40;;;;;;;25.04;62.98;99896.97;4446097;32;33897;-81
2023/08/22 01:39:09;;;;;;;5.30;2.58;;;;;;;25.13;62.55;99893.69;4447099;32;33117;-80
2023/08/22 01:41:39;;;;;;;6.20;2.70;;;;;;;25.13;62.65;99883.06;4452137;32;33058;-80
2023/08/22 01:44:08;;;;;;;5.03;2.90;;;;;;;25.10;62.79;99886.78;4444605;32;33636;-79
2023/08/22 01:46:37;;;;;;;4.20;2.20;;;;;;;25.13;63.08;99893.69;4440671;32;34387;-81
2023/08/22 01:49:06;;;;;;;4.97;2.80;;;;;;;25.10;63.28;99892.09;4445859;32;33837;-81
2023/08/22 01:51:35;;;;;;;6.35;3.33;;;;;;;25.33;62.19;99892.28;4450439;32;34062;-80
2023/08/22 01:54:06;;;;;;;5.05;2.95;;;;;;;25.25;62.39;99889.31;4451057;32;33559;-81
2023/08/22 01:56:35;;;;;;;5.72;3.00;;;;;;;24.98;63.37;99892.09;4445429;32;33872;-81
2023/08/22 01:59:04;;;;;;;5.85;2.80;;;;;;;25.11;63.09;99895.59;4446143;32;33423;-80
2023/08/22 02:01:33;;;;;;;4.85;2.70;;;;;;;25.10;63.01;99892.09;4446028;32;33113;-80
2023/08/22 02:04:03;;;;;;;4.45;2.60;;;;;;;25.08;62.75;99890.47;4436720;32;34489;-80
2023/08/22 02:06:32;;;;;;;6.37;3.40;;;;;;;25.13;62.31;99881.25;4442123;32;33556;-81
2023/08/22 02:09:01;;;;;;;4.25;2.60;;;;;;;25.08;62.36;99891.34;4445584;32;33632;-81
2023/08/22 02:11:32;;;;;;;4.97;2.60;;;;;;;25.06;62.31;99884.44;4445882;32;33106;-80
2023/08/22 02:14:02;;;;;;;4.82;2.65;;;;;;;24.99;62.54;99883.19;4437138;32;33380;-81
2023/08/22 02:16:31;;;;;;;5.03;2.37;;;;;;;25.09;62.06;99884.22;4449923;32;34830;-80
2023/08/22 02:19:01;;;;;;;3.83;2.12;;;;;;;25.05;62.14;99894.19;4445970;32;33023;-80
2023/08/22 02:21:30;;;;;;;5.37;2.92;;;;;;;25.02;62.31;99889.13;4445610;32;33302;-80
2023/08/22 02:23:59;;;;;;;4.15;2.60;;;;;;;25.03;62.11;99896.13;4445644;32;34608;-81
2023/08/22 02:26:29;;;;;;;5.35;2.42;;;;;;;25.23;61.28;99888.59;4450939;32;33935;-80
2023/08/22 02:28:59;;;;;;;4.00;2.37;;;;;;;24.72;63.43;99893.87;4445706;32;33696;-81
2023/08/22 02:31:31;;;;;;;;;;;;;;;25.14;61.70;99887.41;4445881;32;33097;-80
2023/08/22 02:34:00;;;;;;;3.40;1.92;;;;;;;25.13;61.54;99889.22;4445966;32;33846;-81
2023/08/22 02:36:29;;;;;;;3.95;2.30;;;;;;;24.85;62.72;99892.09;4451097;32;33728;-81
2023/08/22 02:38:57;;;;;;;4.28;2.55;;;;;;;24.88;62.79;99883.91;4445570;32;33782;-80
2023/08/22 02:41:26;;;;;;;4.82;2.33;;;;;;;24.96;62.37;99878.94;4445447;32;33381;-80
2023/08/22 02:43:59;;;;;;;4.37;2.62;;;;;;;24.86;62.33;99883.16;4445170;32;33612;-81
2023/08/22 02:46:27;;;;;;;5.10;2.87;;;;;;;24.82;62.27;99882.53;4445803;32;34511;-80
2023/08/22 02:48:56;;;;;;;4.50;2.12;;;;;;;24.85;62.32;99886.78;4449178;32;34343;-80
2023/08/22 02:51:25;;;;;;;7.72;2.62;;;;;;;24.70;63.16;99889.53;4444297;32;33107;-80
2023/08/22 02:53:54;;;;;;;5.00;2.85;;;;;;;24.77;62.91;99886.50;4445451;32;34298;-81
2023/08/22 02:56:23;;;;;;;5.28;2.67;;;;;;;24.73;63.35;99882.34;4445350;32;33895;-80
2023/08/22 02:58:53;;;;;;;4.57;2.65;;;;;;;24.72;63.05;99885.94;4437559;32;33928;-80
2023/08/22 03:01:23;;;;;;;3.97;2.20;;;;;;;24.79;63.26;99881.91;4440339;32;33467;-81
2023/08/22 03:03:54;;;;;;;4.62;2.42;;;;;;;24.80;63.13;99883.62;4446454;32;32960;-80
2023/08/22 03:06:23;;;;;;;6.07;2.87;;;;;;;24.85;62.88;99886.78;4447511;32;33882;-80
2023/08/22 03:08:52;;;;;;;5.62;2.67;;;;;;;24.66;63.55;99888.06;4447571;32;33527;-81
2023/08/22 03:11:21;;;;;;;3.92;2.08;;;;;;;24.66;63.49;99892.50;4437681;32;32922;-80
2023/08/22 03:13:55;;;;;;;4.85;2.53;;;;;;;24.64;63.56;99889.13;4432230;32;33485;-80
2023/08/22 03:16:25;;;;;;;3.87;2.37;;;;;;;24.57;63.56;99886.03;4431405;32;33565;-80
2023/08/22 03:18:57;;;;;;;4.53;2.62;;;;;;;24.81;62.88;99890.59;4445953;32;33900;-80
2023/08/22 03:21:26;;;;;;;7.32;3.15;;;;;;;24.60;63.63;99891.12;4452670;32;33528;-80
2023/08/22 03:23:55;;;;;;;4.60;2.47;;;;;;;24.45;64.32;99889.47;4447224;32;33951;-81
2023/08/22 03:26:26;;;;;;;5.47;2.65;;;;;;;24.63;63.81;99893.56;4447028;32;33966;-81
2023/08/22 03:28:55;;;;;;;4.82;2.62;;;;;;;24.64;63.48;99900.56;4447428;32;33663;-81
2023/08/22 03:31:26;;;;;;;4.30;2.45;;;;;;;24.57;63.83;99893.97;4447439;32;33184;-80
2023/08/22 03:33:55;;;;;;;6.30;3.80;;;;;;;24.75;63.29;99896.34;4452290;32;33577;-80
2023/08/22 03:36:24;;;;;;;4.68;2.75;;;;;;;24.74;63.16;99895.47;4447434;32;34748;-81
2023/08/22 03:38:54;;;;;;;4.55;2.60;;;;;;;24.75;63.09;99902.50;4447027;32;33688;-81
2023/08/22 03:41:23;;;;;;;3.60;1.95;;;;;;;24.71;63.54;99898.34;4447312;32;32997;-81
2023/08/22 03:43:52;;;;;;;5.82;2.85;;;;;;;24.75;63.27;99891.03;4452764;32;33699;-81
2023/08/22 03:46:21;;;;;;;4.57;2.62;;;;;;;24.39;64.49;99893.41;4446790;32;33830;-81
2023/08/22 03:49:09;;;;;;;5.10;2.22;;;;;;;24.62;64.09;99891.00;4447092;32;33215;-80
2023/08/22 03:51:39;;;;;;;6.35;3.08;;;;;;;24.63;64.24;99892.72;4446770;32;34245;-81
2023/08/22 03:54:08;;;;;;;4.10;2.45;;;;;;;24.76;64.07;99890.06;4444475;32;34681;-80
2023/08/22 03:56:37;;;;;;;5.57;3.10;;;;;;;24.77;64.05;99891.78;4452106;32;34913;-81
2023/08/22 03:59:06;;;;;;;5.93;3.60;;;;;;;24.49;65.02;99888.34;4446792;32;33649;-81
2023/08/22 04:01:35;;;;;;;5.03;2.97;;;;;;;24.51;64.79;99896.22;4443820;32;34511;-81
2023/08/22 04:04:04;;;;;;;4.00;2.33;;;;;;;24.58;64.09;99895.69;4444524;32;34848;-81
2023/08/22 04:06:34;;;;;;;5.55;3.12;;;;;;;24.73;63.41;99898.25;4452600;32;34737;-81
2023/08/22 04:09:04;;;;;;;4.03;2.17;;;;;;;24.78;63.11;99902.28;4450016;32;34839;-80
2023/08/22 04:11:32;;;;;;;4.75;2.25;;;;;;;24.74;63.28;99899.94;4433591;32;33098;-81
2023/08/22 04:14:01;;;;;;;4.55;2.40;;;;;;;24.72;63.04;99896.53;4445800;32;33541;-81
2023/08/22 04:16:30;;;;;;;6.28;2.83;;;;;;;24.27;64.85;99897.72;4446661;32;34523;-80
2023/08/22 04:18:59;;;;;;;4.72;2.80;;;;;;;24.55;64.05;99895.03;4452465;32;34794;-81
2023/08/22 04:21:28;;;;;;;3.17;1.92;;;;;;;24.69;63.80;99898.47;4448190;32;33365;-81
2023/08/22 04:23:59;;;;;;;10.75;3.33;;;;;;;24.72;63.81;99896.53;4446599;32;34450;-80
2023/08/22 04:26:28;;;;;;;5.70;3.87;;;;;;;24.68;64.18;99902.06;4449513;32;34462;-81
2023/08/22 04:28:57;;;;;;;5.45;2.78;;;;;;;24.66;64.09;99896.00;4452453;32;33960;-81
2023/08/22 04:31:25;;;;;;;4.75;2.42;;;;;;;24.77;63.91;99902.41;4446734;32;33642;-80
2023/08/22 04:33:54;;;;;;;3.87;2.22;;;;;;;24.66;64.68;99901.31;4446823;32;33643;-80
2023/08/22 04:36:23;;;;;;;5.40;2.72;;;;;;;24.73;64.14;99901.75;4446176;32;33776;-80
2023/08/22 04:38:52;;;;;;;6.72;3.45;;;;;;;24.83;64.06;99901.97;4446301;32;34267;-81
2023/08/22 04:41:25;;;;;;;4.55;2.67;;;;;;;24.83;64.13;99901.97;4438785;32;33708;-80
2023/08/22 04:43:54;;;;;;;5.60;2.60;;;;;;;24.73;64.63;99903.56;4445044;32;33848;-80
2023/08/22 04:46:23;;;;;;;3.47;2.17;;;;;;;24.80;64.21;99904.84;4446534;32;34464;-80
2023/08/22 04:48:51;;;;;;;5.60;2.78;;;;;;;24.83;64.12;99910.78;4446400;32;33409;-81
2023/08/22 04:51:20;;;;;;;5.68;3.28;;;;;;;24.92;64.15;99898.69;4452453;32;33037;-80
2023/08/22 04:53:51;;;;;;;4.35;2.58;;;;;;;25.13;63.67;99906.97;4446334;32;33729;-80
2023/08/22 04:56:22;;;;;;;4.93;2.22;;;;;;;25.10;64.00;99908.03;4446557;32;34611;-80
2023/08/22 04:58:55;;;;;;;3.80;2.22;;;;;;;25.10;64.16;99908.03;4445753;32;33809;-81
2023/08/22 05:01:24;;;;;;;3.78;2.53;;;;;;;25.23;63.96;99921.31;4445933;32;32523;-81
2023/08/22 05:03:53;;;;;;;4.75;2.70;;;;;;;25.29;63.94;99928.81;4451511;32;33964;-81
2023/08/22 05:06:22;;;;;;;6.55;2.95;;;;;;;25.49;63.73;99930.09;4445556;32;34890;-80
2023/08/22 05:08:51;;;;;;;5.45;3.03;;;;;;;25.76;61.17;99937.03;4446435;32;34735;-80
2023/08/22 05:11:20;;;;;;;5.35;3.15;;;;;;;25.72;61.45;99930.22;4446226;32;33461;-80
2023/08/22 05:13:48;;;;;;;5.53;2.87;;;;;;;25.64;61.69;99937.91;4451378;32;35074;-80
2023/08/22 05:16:19;;;;;;;4.97;2.92;;;;;;;25.61;62.47;99933.66;4446272;32;34620;-81
2023/08/22 05:18:48;;;;;;;4.85;2.55;;;;;;;25.78;62.43;99937.75;4446013;32;33666;-81
2023/08/22 05:21:17;;;;;;;6.18;3.42;;;;;;;26.17;61.13;99939.34;4446629;32;33010;-81
2023/08/22 05:23:47;;;;;;;4.50;2.60;;;;;;;26.19;61.37;99939.19;4452005;32;34352;-80
2023/08/22 05:26:17;;;;;;;4.57;2.85;;;;;;;26.87;58.80;99939.44;4450110;32;33630;-81
2023/08/22 05:28:45;;;;;;;5.87;3.50;;;;;;;27.27;58.59;99944.38;4447372;32;34137;-81
2023/08/22 05:31:20;;;;;;;4.40;2.33;;;;;;;27.86;56.99;99950.28;4446224;32;32890;-81
2023/08/22 05:33:50;;;;;;;4.32;2.47;;;;;;;28.64;54.92;99945.63;4446488;32;33448;-81
2023/08/22 05:36:19;;;;;;;5.37;3.05;;;;;;;29.12;52.71;99937.09;4452326;32;33922;-81
2023/08/22 05:38:47;;;;;;;4.40;2.08;;;;;;;29.70;50.71;99936.47;4446445;32;34220;-81
2023/08/22 05:41:17;;;;;;;4.78;2.58;;;;;;;30.05;50.34;99932.44;4446322;32;33501;-80
2023/08/22 05:43:46;;;;;;;3.70;2.30;;;;;;;30.19;49.45;99934.69;4445803;32;34336;-81
2023/08/22 05:46:15;;;;;;;4.80;3.08;;;;;;;30.31;49.02;99931.94;4437703;32;32216;-81
2023/08/22 05:48:47;;;;;;;4.78;2.75;;;;;;;30.54;47.58;99937.81;4451071;32;34035;-81
2023/08/22 05:51:16;;;;;;;4.35;2.40;;;;;;;30.41;48.12;99938.94;4446868;32;32564;-81
2023/08/22 05:53:45;;;;;;;4.97;2.33;;;;;;;30.30;48.44;99939.13;4446451;32;33677;-81
2023/08/22 05:56:16;;;;;;;4.57;2.50;;;;;;;30.43;48.40;99946.84;4446196;32;34931;-81
2023/08/22 05:58:45;;;;;;;5.20;3.10;;;;;;;30.33;49.37;99948.69;4451774;32;33723;-81
2023/08/22 06:01:15;;;;;;;5.43;2.83;;;;;;;30.28;49.13;99953.63;4446372;32;34743;-80
2023/08/22 06:03:44;;;;;;;4.53;2.50;;;;;;;29.96;50.08;99950.19;4445487;32;33611;-81
2023/08/22 06:06:14;;;;;;;4.28;2.60;;;;;;;29.80;50.50;99944.53;4445995;32;34613;-81
2023/08/22 06:08:44;;;;;;;5.32;3.33;;;;;;;29.60;50.65;99954.31;4448285;32;33883;-81
2023/08/22 06:11:12;;;;;;;4.80;2.72;;;;;;;29.23;51.39;99949.50;4433863;32;33185;-81
2023/08/22 06:13:41;;;;;;;6.53;3.25;;;;;;;29.16;51.59;99948.34;4441667;32;33367;-81
2023/08/22 06:16:11;;;;;;;4.97;2.83;;;;;;;28.89;52.51;99949.72;4443187;32;34586;-81
2023/08/22 06:18:40;;;;;;;5.70;3.20;;;;;;;28.85;52.77;99947.44;4440623;32;33559;-81
2023/08/22 06:21:09;;;;;;;5.93;3.92;;;;;;;28.73;53.43;99952.03;4449737;32;33958;-81
2023/08/22 06:23:39;;;;;;;5.37;2.75;;;;;;;28.87;53.33;99950.81;4445027;32;33776;-81
2023/08/22 06:26:11;;;;;;;6.30;2.78;;;;;;;28.55;54.54;99953.56;4442251;32;34141;-80
2023/08/22 06:28:41;;;;;;;5.37;2.92;;;;;;;28.40;55.00;99950.34;4429539;32;33772;-81
2023/08/22 06:31:10;;;;;;;5.15;3.10;;;;;;;28.72;53.97;99944.97;4445116;32;34233;-81
2023/08/22 06:33:40;;;;;;;4.05;2.53;;;;;;;28.65;54.34;99954.47;4445349;32;34336;-80
2023/08/22 06:36:09;;;;;;;6.15;3.42;;;;;;;28.57;54.79;99954.28;4446011;32;34736;-80
2023/08/22 06:38:39;;;;;;;5.18;3.58;;;;;;;28.61;54.56;99953.91;4446265;32;33803;-81
2023/08/22 06:41:08;;;;;;;5.72;3.45;;;;;;;28.65;53.90;99958.00;4435310;32;32334;-81
2023/08/22 06:43:37;;;;;;;5.40;3.00;;;;;;;28.45;53.90;99961.47;4450867;32;33346;-81
2023/08/22 06:46:08;;;;;;;5.03;2.55;;;;;;;28.51;53.63;99960.97;4447713;32;33750;-80
2023/08/22 06:48:38;;;;;;;;;;;;;;;28.72;52.71;99956.50;4442465;32;32890;-80
2023/08/22 06:51:10;;;;;;;3.92;2.05;;;;;;;28.78;53.20;99956.94;4446821;32;34246;-80
2023/08/22 06:53:40;;;;;;;4.12;2.67;;;;;;;28.78;52.70;99956.94;4452735;32;33924;-81
2023/08/22 06:56:09;;;;;;;4.53;2.53;;;;;;;28.96;52.20;99947.37;4443415;32;34572;-81
2023/08/22 06:58:38;;;;;;;5.00;2.42;;;;;;;28.61;53.07;99945.03;4437455;32;33469;-80
2023/08/22 07:01:07;;;;;;;6.20;3.40;;;;;;;29.17;52.08;99947.37;4451828;32;33360;-81
2023/08/22 07:03:36;;;;;;;9.07;5.25;;;;;;;28.97;53.38;99943.75;4446726;32;34597;-81
2023/08/22 07:06:06;;;;;;;4.57;2.70;;;;;;;29.10;52.62;99949.72;4451300;32;33639;-81
2023/08/22 07:08:34;;;;;;;5.53;2.70;;;;;;;29.03;52.71;99947.69;4438872;32;33541;-81
2023/08/22 07:11:05;;;;;;;6.20;3.20;;;;;;;29.01;53.15;99949.66;4446166;32;33355;-81
2023/08/22 07:13:37;;;;;;;4.85;2.58;;;;;;;28.89;52.97;99948.88;4442872;32;32652;-81
2023/08/22 07:16:10;;;;;;;4.45;2.22;;;;;;;29.44;50.53;99953.97;4453886;32;33539;-81
2023/08/22 07:18:39;;;;;;;4.57;2.40;;;;;;;29.58;51.10;99952.75;4451626;32;33514;-81
2023/08/22 07:21:08;;;;;;;4.78;2.70;;;;;;;29.38;51.33;99955.31;4448486;32;33061;-80
2023/08/22 07:23:37;;;;;;;4.40;2.58;;;;;;;29.47;50.40;99953.69;4451707;32;34721;-81
2023/08/22 07:26:08;;;;;;;4.45;2.62;;;;;;;29.21;50.59;99950.63;4462648;32;34110;-81
2023/08/22 07:28:36;;;;;;;;;;;;;;;29.56;49.56;99952.88;4468726;32;33870;-81
2023/08/22 07:31:06;;;;;;;5.45;2.83;;;;;;;29.77;51.02;99955.50;4462992;32;33827;-81
2023/08/22 07:33:35;;;;;;;3.80;1.92;;;;;;;29.68;51.99;99954.50;4451056;32;33941;-81
2023/08/22 07:36:04;;;;;;;5.32;3.03;;;;;;;29.93;50.77;99960.31;4449085;32;34770;-81
2023/08/22 07:38:33;;;;;;;6.68;2.30;;;;;;;29.62;51.22;99949.63;4454333;32;33940;-81
2023/08/22 07:41:02;;;;;;;5.90;2.33;;;;;;;29.81;51.95;99951.56;4447227;32;33236;-81
2023/08/22 07:43:32;;;;;;;3.83;2.15;;;;;;;29.88;52.10;99958.03;4447142;32;33834;-81
2023/08/22 07:46:01;;;;;;;4.93;2.45;;;;;;;29.98;51.93;99958.06;4447199;32;33178;-80
2023/08/22 07:48:30;;;;;;;5.22;2.53;;;;;;;29.84;51.64;99950.44;4451752;32;33871;-81
2023/08/22 07:50:59;;;;;;;5.05;2.90;;;;;;;30.08;51.62;99952.72;4450463;32;33281;-80
2023/08/22 07:53:28;;;;;;;4.60;2.47;;;;;;;30.29;51.54;99941.94;4446741;32;34631;-81
2023/08/22 07:55:56;;;;;;;6.03;3.05;;;;;;;30.55;51.45;99952.91;4448473;32;33949;-81
2023/08/22 07:58:25;;;;;;;6.70;2.60;;;;;;;30.48;51.63;99941.91;4447276;32;33490;-80
2023/08/22 08:00:56;;;;;;;4.75;2.70;;;;;;;30.64;51.04;99944.03;4452649;32;33294;-81
2023/08/22 08:03:25;;;;;;;5.25;3.20;;;;;;;30.52;51.87;99943.34;4446402;32;33761;-81
2023/08/22 08:05:55;;;;;;;4.57;2.37;;;;;;;30.53;51.52;99949.53;4444066;32;82288;-81
2023/08/22 08:08:24;;;;;;;5.43;2.75;;;;;;;30.37;52.11;99947.41;4447125;32;33135;-81
2023/08/22 08:10:53;;;;;;;4.68;2.35;;;;;;;30.82;50.26;99950.31;4452435;32;33199;-80
2023/08/22 08:13:22;;;;;;;4.47;2.30;;;;;;;30.69;50.71;99941.75;4446900;32;34288;-81
2023/08/22 08:15:50;;;;;;;5.28;2.58;;;;;;;30.47;51.09;99950.94;4446708;32;33400;-81
2023/08/22 08:18:35;;;;;;;6.95;2.85;;;;;;;30.87;51.00;99951.75;4446893;32;34600;-81
2023/08/22 08:21:03;;;;;;;6.05;2.70;;;;;;;30.98;51.01;99949.75;4445878;32;32532;-80
2023/08/22 08:23:32;;;;;;;5.25;2.95;;;;;;;31.15;49.59;99958.03;4442526;32;33345;-81
2023/08/22 08:26:03;;;;;;;7.05;3.60;;;;;;;31.29;48.96;99960.25;4436318;32;34702;-80
2023/08/22 08:28:33;;;;;;;5.05;2.83;;;;;;;31.23;48.77;99955.44;4445739;32;34306;-81
2023/08/22 08:31:02;;;;;;;9.50;3.13;;;;;;;31.41;48.32;99955.53;4442777;32;33130;-80
2023/08/22 08:33:31;;;;;;;5.03;2.90;;;;;;;31.29;48.89;99960.25;4441597;32;33477;-81
2023/08/22 08:36:02;;;;;;;5.40;3.12;;;;;;;31.48;47.21;99962.00;4451888;32;34756;-81
2023/08/22 08:38:31;;;;;;;5.00;2.33;;;;;;;31.66;48.00;99960.22;4437963;32;35172;-81
2023/08/22 08:41:01;;;;;;;5.75;2.42;;;;;;;31.75;48.28;99952.25;4438270;32;34151;-81
2023/08/22 08:43:33;;;;;;;3.17;1.87;;;;;;;31.71;45.80;99951.72;4439723;32;33532;-81
2023/08/22 08:46:02;;;;;;;7.35;2.72;;;;;;;31.58;45.67;99948.53;4451523;32;33685;-80
2023/08/22 08:48:33;;;;;;;5.05;2.60;;;;;;;31.80;45.97;99947.28;4441876;32;33427;-80
2023/08/22 08:51:04;;;;;;;4.87;2.53;;;;;;;31.93;45.95;99955.00;4430992;32;32824;-80
2023/08/22 08:53:37;;;;;;;4.78;2.78;;;;;;;31.83;45.13;99947.00;4444401;32;33685;-80
2023/08/22 08:56:09;;;;;;;5.47;2.62;;;;;;;32.05;45.18;99951.12;4436394;32;34929;-80
2023/08/22 08:58:41;;;;;;;4.68;2.53;;;;;;;32.34;43.92;99950.03;4452107;32;33582;-80
2023/08/22 09:01:10;;;;;;;4.85;2.47;;;;;;;32.36;43.80;99948.06;4434457;32;33018;-80
2023/08/22 09:03:39;;;;;;;7.67;2.67;;;;;;;32.37;43.31;99945.19;4440280;32;33946;-81
2023/08/22 09:06:09;;;;;;;3.92;2.20;;;;;;;32.64;42.94;99946.13;4436487;32;33779;-80
2023/08/22 09:08:39;;;;;;;3.50;2.22;;;;;;;32.72;42.43;99940.81;4449750;32;33609;-80
2023/08/22 09:11:08;;;;;;;4.82;2.35;;;;;;;32.66;41.79;99939.59;4435575;32;33488;-81
2023/08/22 09:13:39;;;;;;;4.18;2.40;;;;;;;32.84;43.31;99930.66;4449482;32;34424;-80
2023/08/22 09:16:24;;;;;;;5.35;2.92;;;;;;;32.96;41.77;99929.38;4430810;32;33604;-80
2023/08/22 09:18:53;;;;;;;4.68;2.45;;;;;;;33.09;41.93;99926.28;4431210;32;34530;-80
2023/08/22 09:21:23;;;;;;;5.55;2.92;;;;;;;33.00;42.56;99925.34;4444468;32;33238;-80
2023/08/22 09:23:52;;;;;;;;;;;;;;;32.96;41.08;99921.31;4446799;32;33200;-81
2023/08/22 09:26:22;;;;;;;4.87;2.50;;;;;;;33.13;41.33;99925.81;4446183;32;33908;-80
2023/08/22 09:28:52;;;;;;;6.20;2.78;;;;;;;33.12;39.52;99924.09;4446150;32;33659;-81
2023/08/22 09:31:24;;;;;;;4.53;2.55;;;;;;;33.13;39.50;99916.91;4441463;32;33319;-80
2023/08/22 09:33:53;;;;;;;4.75;2.55;;;;;;;33.32;40.76;99915.78;4451953;32;33705;-81
2023/08/22 09:36:23;;;;;;;3.90;2.33;;;;;;;33.45;40.53;99918.06;4446118;32;33456;-80
2023/08/22 09:38:55;;;;;;;4.28;2.37;;;;;;;33.53;39.79;99920.75;4445684;32;33315;-81
2023/08/22 09:41:24;;;;;;;5.18;2.95;;;;;;;33.30;40.02;99904.38;4448398;32;33271;-80
2023/08/22 09:44:00;;;;;;;4.30;2.35;;;;;;;33.32;38.43;99908.59;4449893;32;33544;-81
2023/08/22 09:46:30;;;;;;;4.77;2.60;;;;;;;33.55;39.22;99908.00;4443083;32;34491;-80
2023/08/22 09:49:01;;;;;;;5.32;2.03;;;;;;;33.45;40.47;99907.28;4447070;32;33592;-80
2023/08/22 09:51:35;;;;;;;4.28;2.40;;;;;;;33.58;38.55;99899.63;4441061;32;33754;-81
2023/08/22 09:54:04;;;;;;;3.90;2.17;;;;;;;33.48;38.99;99899.72;4435810;32;34247;-81
2023/08/22 09:56:37;;;;;;;4.10;2.30;;;;;;;33.63;38.31;99902.66;4451815;32;34128;-81
2023/08/22 09:59:06;;;;;;;4.60;2.40;;;;;;;33.80;40.37;99898.16;4439300;32;33754;-80
2023/08/22 10:01:37;;;;;;;4.40;2.60;;;;;;;33.87;40.23;99898.34;4441142;32;33010;-81
2023/08/22 10:04:07;;;;;;;4.60;2.35;;;;;;;34.12;37.83;99891.16;4444902;32;34452;-80
2023/08/22 10:06:39;;;;;;;5.70;2.78;;;;;;;34.12;38.99;99893.84;4449044;32;34103;-81
2023/08/22 10:09:16;;;;;;;4.18;2.47;;;;;;;33.99;38.54;99892.44;4424097;32;34520;-80
2023/08/22 10:11:49;;;;;;;6.78;2.00;;;;;;;34.16;39.07;99887.94;4446218;32;32860;-80
2023/08/22 10:14:22;;;;;;;4.78;2.25;;;;;;;34.15;37.78;99888.97;4445286;32;34688;-80
2023/08/22 10:16:51;;;;;;;4.87;2.47;;;;;;;34.25;38.68;99887.97;4445465;32;33758;-81
2023/08/22 10:19:21;;;;;;;4.72;2.30;;;;;;;34.49;37.22;99892.50;4451840;32;33418;-80
2023/08/22 10:21:53;;;;;;;4.20;2.28;;;;;;;34.32;37.46;99883.59;4445742;32;34015;-80
2023/08/22 10:24:29;;;;;;;3.87;2.17;;;;;;;34.19;38.87;99881.38;4430496;32;33720;-80
2023/08/22 10:27:02;;;;;;;4.18;2.15;;;;;;;34.37;38.31;99876.69;4430255;32;33530;-80
2023/08/22 10:29:36;;;;;;;5.25;2.87;;;;;;;34.66;37.80;99878.00;4437956;32;33909;-81
2023/08/22 10:32:20;;;;;;;5.75;2.60;;;;;;;34.74;35.34;99875.28;4448583;32;33659;-81
2023/08/22 10:35:07;;;;;;;6.93;2.42;;;;;;;34.51;36.04;99875.16;4441590;32;33469;-80
2023/08/22 10:37:47;;;;;;;4.05;2.35;;;;;;;34.47;37.05;99873.81;4442080;32;33968;-80
2023/08/22 10:40:25;;;;;;;5.00;2.58;;;;;;;34.56;36.63;99869.25;4441738;32;34261;-80
2023/08/22 10:43:13;;;;;;;3.95;2.15;;;;;;;34.55;36.77;99871.09;4442469;32;33111;-80
2023/08/22 10:45:52;;;;;;;4.97;2.70;;;;;;;34.70;37.76;99865.91;4445573;32;33929;-80
2023/08/22 10:48:22;;;;;;;4.68;2.33;;;;;;;34.84;34.63;99861.63;4448749;32;35893;-80
2023/08/22 10:50:52;;;;;;;4.65;2.70;;;;;;;34.91;35.01;99865.31;4444516;32;35038;-80
2023/08/22 10:53:26;;;;;;;3.90;1.98;;;;;;;34.88;35.12;99862.97;4442514;32;33699;-80
2023/08/22 10:55:57;;;;;;;4.15;2.22;;;;;;;34.99;33.50;99868.00;4442921;32;33645;-81
2023/08/22 10:58:39;;;;;;;4.97;2.70;;;;;;;34.72;35.50;99861.16;4437576;32;35940;-80
2023/08/22 11:01:14;;;;;;;4.28;2.50;;;;;;;34.90;34.04;99852.03;4445451;32;34122;-80
2023/08/22 11:03:43;;;;;;;6.53;2.85;;;;;;;34.97;36.42;99851.16;4438520;32;33675;-81
2023/08/22 11:06:17;;;;;;;4.53;2.50;;;;;;;35.01;35.36;99857.88;4429770;32;33933;-81
2023/08/22 11:08:47;;;;;;;4.47;2.20;;;;;;;35.04;35.16;99854.81;4435426;32;33964;-80
2023/08/22 11:11:17;;;;;;;4.53;2.17;;;;;;;35.28;35.82;99858.47;4441499;32;32776;-81
2023/08/22 11:13:46;;;;;;;4.30;2.37;;;;;;;35.34;35.29;99856.91;4446015;32;32809;-81
2023/08/22 11:16:16;;;;;;;4.82;2.75;;;;;;;35.34;34.56;99857.75;4442334;32;32017;-80
2023/08/22 11:18:48;;;;;;;4.68;2.42;;;;;;;35.37;34.12;99859.25;4441905;32;33093;-80
2023/08/22 11:21:16;;;;;;;4.65;2.30;;;;;;;35.60;34.02;99862.84;4432699;32;33868;-81
2023/08/22 11:23:51;;;;;;;5.40;2.50;;;;;;;35.62;32.76;99855.44;4445263;32;32736;-80
2023/08/22 11:26:22;;;;;;;4.22;2.08;;;;;;;35.64;31.97;99853.38;4437983;32;31023;-81
2023/08/22 11:28:55;;;;;;;3.42;2.00;;;;;;;35.44;33.19;99846.72;4444107;32;33561;-81
2023/08/22 11:31:24;;;;;;;7.82;3.20;;;;;;;35.78;33.52;99842.81;4444335;32;33108;-80
2023/08/22 11:33:53;;;;;;;3.75;2.12;;;;;;;35.87;32.57;99847.16;4446103;32;33081;-80
2023/08/22 11:36:22;;;;;;;4.77;2.57;;;;;;;35.99;32.99;99844.88;4448914;32;34456;-80
2023/08/22 11:38:57;;;;;;;5.00;2.33;;;;;;;36.03;32.81;99838.91;4443365;32;34316;-80
2023/08/22 11:41:26;;;;;;;3.50;1.85;;;;;;;35.89;31.35;99839.72;4443092;32;32465;-80
2023/08/22 11:43:58;;;;;;;5.32;2.33;;;;;;;36.03;32.09;99836.22;4443722;32;32940;-80
2023/08/22 11:46:28;;;;;;;4.37;2.30;;;;;;;36.00;31.79;99830.34;4447836;32;34217;-80
2023/08/22 11:49:11;;;;;;;5.53;2.33;;;;;;;36.09;31.83;99835.50;4449047;32;35922;-81